25 września 2022

Czas Kod Pogoda Temp. Widoczność Sufit Wiatr METAR/SPECI
05:25
I
5 °C 1,5 km - 320° 320° 1 kt METAR EHDL 250325Z AUTO 32001KT 1500 BR NCD 05/05 Q1015 AMB
04:55
L
6 °C 700 m - Var 000° 0 kt METAR EHDL 250255Z AUTO 00000KT 0700 // BKN000 06/06 Q1015 RED
04:25
I
5 °C 2,7 km - 280° 280° 1 kt METAR EHDL 250225Z AUTO 28001KT 2700 BR FEW000 05/05 Q1015 YLO
03:55
L
7 °C 1 km - 330° 330° 3 kt METAR EHDL 250155Z AUTO 33003KT 1000 BR NCD 07/06 Q1015 AMB
03:25
I
8 °C 2,5 km - 330° 330° 4 kt METAR EHDL 250125Z AUTO 33004KT 2500 BR NCD 08/07 Q1015 YLO
02:55
V
8 °C 10 km+ - 330° 330° 4 kt METAR EHDL 250055Z AUTO 33004KT 9999 NCD 08/08 Q1015 BLU
02:25
V
8 °C 10 km+ - 330° 330° 5 kt METAR EHDL 250025Z AUTO 33005KT 9999 NCD 08/08 Q1015 BLU RMK CB INFO NOT AVBL
01:55
V
8 °C 10 km+ - 330° 330° 4 kt METAR EHDL 242355Z AUTO 33004KT 9999 FEW066 08/08 Q1015 BLU
01:25
V
9 °C 10 km+ - 320° 320° 3 kt METAR EHDL 242325Z AUTO 32003KT 9999 NCD 09/09 Q1015 BLU
00:55
V
9 °C 10 km+ - 320° 320° 4 kt METAR EHDL 242255Z AUTO 32004KT 9999 FEW088 09/09 Q1015 BLU
00:25
V
10 °C 10 km+ 8.500 ft 330° 330° 4 kt METAR EHDL 242225Z AUTO 33004KT 340V040 9999 BKN085 10/09 Q1015 BLU

24 września 2022

Czas Kod Pogoda Temp. Widoczność Sufit Wiatr METAR/SPECI
23:55
V
11 °C 10 km+ 6.300 ft 330° 330° 5 kt METAR EHDL 242155Z AUTO 33005KT 300V010 9999 OVC063 11/10 Q1015 BLU
23:25
V
12 °C 10 km+ 6.200 ft 350° 350° 6 kt METAR EHDL 242125Z AUTO 35006KT 310V020 9999 OVC062 12/10 Q1015 BLU
22:55
V
12 °C 10 km+ 5.500 ft 340° 340° 5 kt METAR EHDL 242055Z AUTO 34005KT 300V010 9999 OVC055 12/11 Q1015 BLU
22:25
V
12 °C 10 km+ 8.300 ft 340° 340° 5 kt METAR EHDL 242025Z AUTO 34005KT 9999 FEW039 SCT059 OVC083 12/11 Q1015 BLU
21:55
V
12 °C 10 km+ 3.700 ft 350° 350° 5 kt METAR EHDL 241955Z AUTO 35005KT 320V030 9999 OVC037 12/11 Q1015 BLU
21:25
V
12 °C 10 km+ 3.100 ft 010° 010° 5 kt METAR EHDL 241925Z AUTO 01005KT 320V070 9999 BKN031 OVC035 12/11 Q1014 BLU
20:55
V
12 °C 10 km+ 4.500 ft 020° 020° 7 kt METAR EHDL 241855Z AUTO 02007KT 330V090 9999 FEW028 SCT032 OVC045 12/11 Q1014 BLU
20:25
V
12 °C 10 km+ 3.800 ft 010° 010° 7 kt METAR EHDL 241825Z AUTO 01007KT 330V060 9999 BKN038 BKN042 BKN056 12/11 Q1014 BLU
19:55
V
12 °C 10 km+ 3.400 ft 010° 010° 5 kt METAR EHDL 241755Z AUTO 01005KT 330V070 9999 FEW030 OVC034 12/11 Q1014 BLU
19:25
V
13 °C 10 km+ 7.400 ft 010° 010° 6 kt METAR EHDL 241725Z AUTO 01006KT 330V040 9999 FEW050 OVC074 13/12 Q1014 BLU
18:55
V
13 °C 10 km+ 3.000 ft 360° 360° 6 kt METAR EHDL 241655Z AUTO 36006KT 310V050 9999 -RA BKN030 BKN035 OVC074 13/12 Q1014 RERA REDZ BLU
18:25
V
13 °C 10 km+ 6.600 ft 360° 360° 5 kt METAR EHDL 241625Z AUTO 36005KT 330V050 9999 -RADZ OVC066 13/12 Q1013 BLU
17:55
V
13 °C 10 km+ 6.300 ft 010° 010° 7 kt METAR EHDL 241555Z AUTO 01007KT 310V070 9999 -RA FEW031 BKN063 OVC068 13/13 Q1013 RERA REDZ BLU
17:25
V
13 °C 10 km+ 5.600 ft 020° 020° 4 kt METAR EHDL 241525Z AUTO 02004KT 320V050 9999 +DZ FEW010 SCT016 OVC056 13/13 Q1013 WHT
16:55
V
13 °C 10 km+ 4.500 ft 020° 020° 6 kt METAR EHDL 241455Z AUTO 02006KT 330V080 9999 -RA FEW010 BKN045 OVC050 13/13 Q1013 RERA BLU
16:25
M
13 °C 8 km 2.900 ft 030° 030° 8 kt METAR EHDL 241425Z AUTO 03008KT 320V080 8000 -RADZ FEW007 SCT019 BKN029 13/13 Q1013 WHT
15:55
I
13 °C 4,8 km 600 ft 360° 360° 6 kt METAR EHDL 241355Z AUTO 36006KT 310V050 4800 -RA FEW003 BKN006 BKN007 13/13 Q1013 YLO
15:25
I
13 °C 3 km 700 ft Var Var 4 kt METAR EHDL 241325Z AUTO VRB04KT 3000 SHRA FEW003 BKN007 BKN011 13/13 Q1013 YLO
14:55
L
13 °C 3,5 km 400 ft Var Var 2 kt METAR EHDL 241255Z AUTO VRB02KT 3500 RA SCT003 BKN004 OVC008 13/13 Q1013 RERA REDZ YLO
14:25
M
13 °C 7 km 1.300 ft 210° 210° 4 kt METAR EHDL 241225Z AUTO 21004KT 140V250 7000 DZ FEW004 SCT006 BKN013 13/13 Q1013 YLO
13:55
M
13 °C 7 km 1.000 ft 220° 220° 4 kt METAR EHDL 241155Z AUTO 22004KT 170V260 7000 -RA FEW004 OVC010 13/13 Q1013 GRN
13:25
I
13 °C 6 km 600 ft 210° 210° 3 kt METAR EHDL 241125Z AUTO 21003KT 170V290 6000 RA FEW004 SCT005 BKN006 13/13 Q1013 RERA REDZ YLO
12:55
I
13 °C 6 km 500 ft 200° 200° 4 kt METAR EHDL 241055Z AUTO 20004KT 140V260 6000 -RA SCT003 BKN005 OVC008 13/13 Q1013 YLO
12:25
I
13 °C 4,2 km 800 ft 200° 200° 4 kt METAR EHDL 241025Z AUTO 20004KT 160V260 4200 -SHRA FEW003 SCT007 BKN008 13/13 Q1013 GRN
11:55
I
13 °C 4,6 km 800 ft 220° 220° 4 kt METAR EHDL 240955Z AUTO 22004KT 160V280 4600 -RA FEW004 SCT005 BKN008 13/13 Q1012 RERA REDZ YLO
11:25
I
13 °C 6 km 700 ft 200° 200° 5 kt METAR EHDL 240925Z AUTO 20005KT 160V250 6000 DZ FEW004 SCT006 BKN007 13/13 Q1012 YLO
10:55
L
13 °C 4,8 km 400 ft 200° 200° 4 kt METAR EHDL 240855Z AUTO 20004KT 150V250 4800 DZ SCT002 BKN004 OVC007 13/12 Q1012 AMB
10:25
I
13 °C 4,4 km 600 ft 200° 200° 4 kt METAR EHDL 240825Z AUTO 20004KT 130V250 4400 -SHRA FEW003 SCT004 BKN006 13/12 Q1012 REDZ YLO
09:55
I
13 °C 5 km 700 ft 200° 200° 5 kt METAR EHDL 240755Z AUTO 20005KT 140V240 5000 DZ FEW005 OVC007 13/12 Q1012 GRN
09:25
I
13 °C 5 km 600 ft 190° 190° 5 kt METAR EHDL 240725Z AUTO 19005KT 140V250 5000 -DZ FEW005 BKN006 OVC007 13/12 Q1011 REDZ YLO
08:55
I
13 °C 5 km 600 ft 190° 190° 4 kt METAR EHDL 240655Z AUTO 19004KT 140V230 5000 -RA BKN006 OVC007 13/12 Q1011 RERA REDZ YLO
08:25
I
12 °C 5 km 700 ft 180° 180° 4 kt METAR EHDL 240625Z AUTO 18004KT 120V230 5000 -RADZ BKN007 OVC008 12/12 Q1011 GRN
07:55
I
12 °C 5 km 800 ft 180° 180° 5 kt METAR EHDL 240555Z AUTO 18005KT 130V230 5000 -DZ SCT007 OVC008 12/12 Q1011 GRN
07:25
I
12 °C 5 km 900 ft 180° 180° 5 kt METAR EHDL 240525Z AUTO 18005KT 120V230 5000 -DZ FEW007 OVC009 12/12 Q1011 GRN
06:55
I
12 °C 5 km 900 ft 180° 180° 4 kt METAR EHDL 240455Z AUTO 18004KT 120V220 5000 DZ OVC009 12/12 Q1011 GRN
06:25
M
12 °C 5 km 1.000 ft 190° 190° 4 kt METAR EHDL 240425Z AUTO 19004KT 120V220 5000 BR OVC010 12/12 Q1011 GRN
05:55
I
12 °C 4,9 km 1.100 ft 190° 190° 5 kt METAR EHDL 240355Z AUTO 19005KT 100V260 4900 -DZ BKN011 OVC013 12/12 Q1011 GRN
05:25
I
12 °C 4,1 km 1.200 ft 180° 180° 5 kt METAR EHDL 240325Z AUTO 18005KT 120V250 4100 -DZ FEW007 OVC012 12/12 Q1011 GRN
04:55
I
13 °C 3 km 1.000 ft 190° 190° 6 kt METAR EHDL 240255Z AUTO 19006KT 140V240 3000 BR FEW004 BKN010 OVC012 13/12 Q1011 YLO
04:25
I
13 °C 3,4 km 600 ft 200° 200° 6 kt METAR EHDL 240225Z AUTO 20006KT 140V240 3400 -DZ BKN006 OVC007 13/12 Q1011 YLO
03:55
I
13 °C 2,7 km 700 ft 180° 180° 5 kt METAR EHDL 240155Z AUTO 18005KT 130V240 2700 DZ FEW004 SCT005 BKN007 13/12 Q1012 YLO
03:25
I
13 °C 3,4 km 800 ft 200° 200° 4 kt METAR EHDL 240125Z AUTO 20004KT 130V240 3400 DZ FEW004 SCT007 BKN008 13/12 Q1012 YLO
02:55
I
13 °C 3 km 700 ft 200° 200° 4 kt METAR EHDL 240055Z AUTO 20004KT 140V260 3000 DZ FEW004 SCT006 BKN007 13/12 Q1012 YLO
02:25
I
13 °C 2,9 km 700 ft 200° 200° 5 kt METAR EHDL 240025Z AUTO 20005KT 140V250 2900 -RADZ FEW004 SCT006 BKN007 13/12 Q1012 YLO
01:55
I
13 °C 4 km 700 ft 200° 200° 6 kt METAR EHDL 232355Z AUTO 20006KT 130V250 4000 BR FEW004 SCT006 BKN007 13/12 Q1013 YLO
01:25
M
13 °C 5 km 3.700 ft 200° 200° 5 kt METAR EHDL 232325Z AUTO 20005KT 130V240 5000 BR FEW010 BKN037 OVC042 13/12 Q1013 WHT
00:55
M
13 °C 6 km 6.600 ft 200° 200° 5 kt METAR EHDL 232255Z AUTO 20005KT 140V250 6000 BR OVC066 13/12 Q1013 WHT
00:25
V
13 °C 8 km 6.700 ft 190° 190° 5 kt METAR EHDL 232225Z AUTO 19005KT 120V230 8000 BR OVC067 13/12 Q1013 BLU

23 września 2022

Czas Kod Pogoda Temp. Widoczność Sufit Wiatr METAR/SPECI
23:55
V
14 °C 10 km+ 7.500 ft 190° 190° 5 kt METAR EHDL 232155Z AUTO 19005KT 120V230 9999 OVC075 14/12 Q1013 BLU
23:25
V
14 °C 10 km+ 6.500 ft 210° 210° 6 kt METAR EHDL 232125Z AUTO 21006KT 130V260 9999 BKN065 OVC071 14/12 Q1013 BLU
22:55
M
14 °C 6 km 7.300 ft 200° 200° 5 kt METAR EHDL 232055Z AUTO 20005KT 130V230 6000 BR OVC073 14/12 Q1013 WHT
22:25
M
14 °C 5 km 2.100 ft 190° 190° 5 kt METAR EHDL 232025Z AUTO 19005KT 130V220 5000 BR BKN021 OVC026 14/13 Q1014 WHT
21:55
M
14 °C 6 km 7.500 ft 200° 200° 4 kt METAR EHDL 231955Z AUTO 20004KT 120V210 6000 BR SCT020 OVC075 14/13 Q1014 WHT
21:25
M
13 °C 7 km 7.500 ft 190° 190° 4 kt METAR EHDL 231925Z AUTO 19004KT 100V180 7000 -DZ FEW021 OVC075 13/12 Q1014 REDZ WHT
20:55
V
13 °C 8 km 8.300 ft Var Var 1 kt METAR EHDL 231855Z AUTO VRB01KT 8000 DZ FEW076 OVC083 13/12 Q1014 BLU
20:25
V
14 °C 10 km+ 8.700 ft 180° 180° 2 kt METAR EHDL 231825Z AUTO 18002KT 9999 -DZ FEW078 OVC087 14/12 Q1014 BLU
19:55
V
14 °C 10 km+ 7.400 ft 200° 200° 4 kt METAR EHDL 231755Z AUTO 20004KT 130V210 9999 DZRA FEW021 SCT024 BKN074 14/12 Q1014 WHT
19:25
V
15 °C 10 km+ 7.400 ft 210° 210° 8 kt METAR EHDL 231725Z AUTO 21008KT 140V250 9999 -RA SCT069 OVC074 15/11 Q1014 RERA REDZ BLU
18:55
V
16 °C 10 km+ 8.700 ft 200° 200° 5 kt METAR EHDL 231655Z AUTO 20005KT 140V230 9999 SCT080 BKN087 OVC097 16/10 Q1014 BLU
18:25
V
17 °C 10 km+ 8.600 ft 200° 200° 5 kt METAR EHDL 231625Z AUTO 20005KT 120V250 9999 FEW070 BKN086 OVC092 17/09 Q1014 BLU
17:55
V
17 °C 10 km+ 8.100 ft 200° 200° 6 kt METAR EHDL 231555Z AUTO 20006KT 150V280 9999 SCT075 OVC081 17/09 Q1014 BLU
17:25
V
17 °C 10 km+ 9.300 ft 210° 210° 5 kt METAR EHDL 231525Z AUTO 21005KT 140V280 9999 FEW083 BKN093 OVC098 17/09 Q1014 BLU
16:55
V
17 °C 10 km+ 10.000 ft 200° 200° 5 kt METAR EHDL 231455Z AUTO 20005KT 150V280 9999 FEW089 SCT096 OVC100 17/09 Q1014 BLU
16:25
V
17 °C 10 km+ 10.000 ft 190° 190° 6 kt METAR EHDL 231425Z AUTO 19006KT 120V270 9999 FEW091 OVC100 17/09 Q1014 BLU
15:55
V
17 °C 10 km+ 6.300 ft 190° 190° 6 kt METAR EHDL 231355Z AUTO 19006KT 100V240 9999 BKN063 OVC074 17/09 Q1014 BLU
15:25
V
17 °C 10 km+ 10.000 ft 180° 180° 6 kt METAR EHDL 231325Z AUTO 18006KT 110V240 9999 OVC100 17/09 Q1015 BLU
14:55
V
17 °C 10 km+ 10.000 ft 180° 180° 6 kt METAR EHDL 231255Z AUTO 18006KT 120V260 9999 SCT066 OVC100 17/09 Q1015 BLU
14:25
V
17 °C 10 km+ 11.000 ft 180° 180° 5 kt METAR EHDL 231225Z AUTO 18005KT 120V270 9999 OVC110 17/08 Q1015 BLU
13:55
V
16 °C 10 km+ 12.000 ft 190° 190° 6 kt METAR EHDL 231155Z AUTO 19006KT 120V240 9999 OVC120 16/08 Q1015 BLU
13:25
V
17 °C 10 km+ 12.000 ft 200° 200° 6 kt METAR EHDL 231125Z AUTO 20006KT 140V260 9999 OVC120 17/08 Q1015 BLU
12:55
V
18 °C 10 km+ 10.000 ft 190° 190° 5 kt METAR EHDL 231055Z AUTO 19005KT 120V270 9999 OVC100 18/08 Q1015 BLU
12:25
V
17 °C 10 km+ 11.000 ft 210° 210° 5 kt METAR EHDL 231025Z AUTO 21005KT 130V270 9999 OVC110 17/08 Q1016 BLU
11:55
V
15 °C 10 km+ 10.000 ft 200° 200° 4 kt METAR EHDL 230955Z AUTO 20004KT 130V260 9999 OVC100 15/08 Q1016 BLU
11:25
V
14 °C 10 km+ 10.000 ft 160° 160° 4 kt METAR EHDL 230925Z AUTO 16004KT 110V230 9999 OVC100 14/08 Q1016 BLU
10:55
V
13 °C 10 km+ 10.000 ft 160° 160° 4 kt METAR EHDL 230855Z AUTO 16004KT 110V220 9999 OVC100 13/08 Q1016 BLU
10:25
V
13 °C 10 km+ 10.000 ft 170° 170° 3 kt METAR EHDL 230825Z AUTO 17003KT 100V220 9999 OVC100 13/08 Q1016 BLU
09:55
V
11 °C 10 km+ 10.000 ft 130° 130° 3 kt METAR EHDL 230755Z AUTO 13003KT 090V210 9999 OVC100 11/08 Q1016 BLU
09:25
V
10 °C 10 km+ 13.000 ft 130° 130° 3 kt METAR EHDL 230725Z AUTO 13003KT 090V190 9999 OVC130 10/08 Q1016 BLU
08:55
V
10 °C 10 km+ 14.000 ft 120° 120° 3 kt METAR EHDL 230655Z AUTO 12003KT 070V180 9999 OVC140 10/07 Q1016 BLU
08:25
V
9 °C 10 km+ 14.000 ft 120° 120° 3 kt METAR EHDL 230625Z AUTO 12003KT 100V180 9999 OVC140 09/07 Q1016 BLU
07:55
V
9 °C 10 km+ 15.000 ft 110° 110° 3 kt METAR EHDL 230555Z AUTO 11003KT 090V180 9999 OVC150 09/07 Q1016 BLU
07:25
V
8 °C 10 km+ 17.000 ft 120° 120° 3 kt METAR EHDL 230525Z AUTO 12003KT 100V210 9999 OVC170 08/07 Q1016 BLU
06:55
V
8 °C 10 km+ 17.000 ft 110° 110° 3 kt METAR EHDL 230455Z AUTO 11003KT 110V200 9999 OVC170 08/06 Q1016 BLU
06:25
V
7 °C 10 km+ 18.000 ft 120° 120° 3 kt METAR EHDL 230425Z AUTO 12003KT 120V180 9999 OVC180 07/05 Q1016 BLU
05:55
V
8 °C 10 km+ 19.000 ft 110° 110° 3 kt METAR EHDL 230355Z AUTO 11003KT 090V200 9999 BKN190 OVC260 08/06 Q1016 BLU
05:25
V
8 °C 10 km+ 20.000 ft 110° 110° 4 kt METAR EHDL 230325Z AUTO 11004KT 080V190 9999 OVC200 08/06 Q1016 BLU
04:55
V
7 °C 10 km+ 21.000 ft 110° 110° 4 kt METAR EHDL 230255Z AUTO 11004KT 080V180 9999 OVC210 07/06 Q1017 BLU
04:25
V
7 °C 10 km+ 32.000 ft 110° 110° 3 kt METAR EHDL 230225Z AUTO 11003KT 9999 SCT210 OVC320 07/05 Q1017 BLU
03:55
V
7 °C 10 km+ 21.000 ft Var Var 2 kt METAR EHDL 230155Z AUTO VRB02KT 9999 OVC210 07/05 Q1017 BLU
03:25
V
7 °C 10 km+ 22.000 ft 100° 100° 3 kt METAR EHDL 230125Z AUTO 10003KT 100V200 9999 OVC220 07/05 Q1017 BLU
02:55
V
7 °C 10 km+ 22.000 ft 110° 110° 3 kt METAR EHDL 230055Z AUTO 11003KT 130V190 9999 OVC220 07/05 Q1017 BLU
02:25
V
7 °C 10 km+ 23.000 ft 110° 110° 1 kt METAR EHDL 230025Z AUTO 11001KT 9999 OVC230 07/05 Q1018 BLU
01:55
V
7 °C 10 km+ 25.000 ft 110° 110° 1 kt METAR EHDL 222355Z AUTO 11001KT 9999 OVC250 07/06 Q1018 BLU
01:25
V
8 °C 10 km+ 25.000 ft Var Var 2 kt METAR EHDL 222325Z AUTO VRB02KT 9999 OVC250 08/06 Q1018 BLU
00:55
V
8 °C 10 km+ 29.000 ft Var Var 2 kt METAR EHDL 222255Z AUTO VRB02KT 9999 OVC290 08/06 Q1018 BLU
00:25
V
8 °C 10 km+ 27.000 ft Var Var 2 kt METAR EHDL 222225Z AUTO VRB02KT 9999 OVC270 08/06 Q1018 BLU

22 września 2022

Czas Kod Pogoda Temp. Widoczność Sufit Wiatr METAR/SPECI
23:55
V
8 °C 10 km+ 26.000 ft 100° 100° 2 kt METAR EHDL 222155Z AUTO 10002KT 9999 OVC260 08/06 Q1019 BLU
Starsze dane

My i osoby trzecie śledzimy twoje zachowanie w internecie na naszej stronie za pomocą plików cookie. Jeśli kontynuujesz, zakładamy, że zgadzasz się z naszą polityką plików cookie. Dowiedz się więcej